aviador You're here:

YMTG Decoded Metar

in
Report Time2018-07-18 10:00:00
UTC Time2018-07-18 10:59:36
Flight Rules vfr VFR
Wind340° at 18 Gusting to 28 kt
W.Decomp.*RWY 36: 16.9 kt HW 6.2 kt LCW
RWY 29: 11.6 kt HW 13.8 kt RCW
RWY 06: 3.1 kt HW 17.7 kt LCW
W.Rank340° ranks 5
Current wind is above 340° avg. (9.7)
Visibility9999 m
Phenomena:N/A
Clouds:Scattered 074 Hf
Expected CloudBase > 2,000 ft AGL from Temp-Dew spread
CeilingNone
Temp12°C
Dew Point07°C (72% RH)
AAT4.8°C
QNH1008 hPa
Raw Report
METAR YMTG 181000Z AUTO 34018G28KT 9999 // SCT074 12/07 Q1008=

Extra information for YMTG:More info

Social comments